createdAt,value
2018-09-05T00:00:35.484Z,15.13
2018-09-05T00:03:06.782Z,16.30
2018-09-05T00:05:37.564Z,12.33
2018-09-05T00:08:08.480Z,15.72
2018-09-05T00:10:39.565Z,15.53
2018-09-05T00:13:10.505Z,12.55
2018-09-05T00:15:41.531Z,15.90
2018-09-05T00:18:12.521Z,16.27
2018-09-05T00:20:43.514Z,33.10
2018-09-05T00:23:14.494Z,17.42
2018-09-05T00:25:45.494Z,17.12
2018-09-05T00:28:16.497Z,13.50
2018-09-05T00:30:47.509Z,16.25
2018-09-05T00:33:18.493Z,17.15
2018-09-05T00:35:49.474Z,13.55
2018-09-05T00:38:20.485Z,17.25
2018-09-05T00:40:51.477Z,17.02
2018-09-05T00:43:22.509Z,14.20
2018-09-05T00:45:53.457Z,17.55
2018-09-05T00:48:24.489Z,14.20
2018-09-05T00:50:55.486Z,18.05
2018-09-05T00:53:26.645Z,14.60
2018-09-05T00:55:57.529Z,16.73
2018-09-05T00:58:28.489Z,16.97
2018-09-05T01:00:59.532Z,18.65
2018-09-05T01:03:30.508Z,18.23
2018-09-05T01:06:01.484Z,18.98
2018-09-05T01:08:32.505Z,14.47
2018-09-05T01:11:03.498Z,17.90
2018-09-05T01:13:34.497Z,14.53
2018-09-05T01:16:05.642Z,18.75
2018-09-05T01:18:36.560Z,14.40
2018-09-05T01:21:07.577Z,18.52
2018-09-05T01:23:38.484Z,14.83
2018-09-05T01:26:09.451Z,18.30
2018-09-05T01:28:40.441Z,14.98
2018-09-05T01:31:11.485Z,19.42
2018-09-05T01:33:42.502Z,15.58
2018-09-05T01:36:17.668Z,19.12
2018-09-05T01:38:48.563Z,19.30
2018-09-05T01:41:19.541Z,19.73
2018-09-05T01:43:50.501Z,15.35
2018-09-05T01:46:21.491Z,18.62
2018-09-05T01:48:52.508Z,16.07
2018-09-05T01:51:23.485Z,20.27
2018-09-05T01:53:54.479Z,15.88
2018-09-05T01:56:25.456Z,20.08
2018-09-05T01:58:56.478Z,16.75
2018-09-05T02:01:27.473Z,20.12
2018-09-05T02:03:58.497Z,20.32
2018-09-05T02:06:29.464Z,21.10
2018-09-05T02:09:00.674Z,20.65
2018-09-05T02:11:31.497Z,21.90
2018-09-05T02:14:02.437Z,20.77
2018-09-05T02:16:33.473Z,20.57
2018-09-05T02:19:04.461Z,21.80
2018-09-05T02:21:35.520Z,20.77
2018-09-05T02:24:06.500Z,21.80
2018-09-05T02:26:37.508Z,21.10
2018-09-05T02:29:08.479Z,16.65
2018-09-05T02:31:39.410Z,21.60
2018-09-05T02:34:10.444Z,22.48
2018-09-05T02:36:41.438Z,21.90
2018-09-05T02:39:13.210Z,16.48
2018-09-05T02:41:44.345Z,21.75
2018-09-05T02:44:21.605Z,21.07
2018-09-05T02:46:53.286Z,19.62
2018-09-05T02:49:24.366Z,16.07
2018-09-05T02:51:55.430Z,19.92
2018-09-05T02:59:42.583Z,21.20
2018-09-05T03:02:13.484Z,22.32
2018-09-05T03:04:44.461Z,22.22
2018-09-05T03:07:15.463Z,21.50
2018-09-05T03:09:46.485Z,17.75
2018-09-05T03:12:22.777Z,21.42
2018-09-05T03:14:53.818Z,23.75
2018-09-05T03:17:24.645Z,22.90
2018-09-05T03:19:55.496Z,18.85
2018-09-05T03:22:26.498Z,23.95
2018-09-05T03:24:57.519Z,23.90
2018-09-05T03:27:28.474Z,24.65
2018-09-05T03:29:59.650Z,19.77
2018-09-05T03:32:30.737Z,25.15
2018-09-05T03:35:01.460Z,19.85
2018-09-05T03:37:32.464Z,23.65
2018-09-05T03:40:03.695Z,24.70
2018-09-05T03:42:34.556Z,25.15
2018-09-05T03:45:05.521Z,25.48
2018-09-05T03:47:36.487Z,19.32
2018-09-05T03:50:09.018Z,26.20
2018-09-05T03:52:40.284Z,25.70
2018-09-05T03:55:11.364Z,27.00
2018-09-05T03:57:42.424Z,26.77
2018-09-05T04:00:13.521Z,25.32
2018-09-05T04:02:44.481Z,25.80
2018-09-05T04:05:15.506Z,26.05
2018-09-05T04:07:46.525Z,26.75
2018-09-05T04:10:17.583Z,26.75
2018-09-05T04:12:48.529Z,27.58
2018-09-05T04:15:19.568Z,27.05
2018-09-05T04:17:50.517Z,28.30
2018-09-05T04:20:21.534Z,26.82
2018-09-05T04:22:52.519Z,27.95
2018-09-05T04:25:23.526Z,27.32
2018-09-05T04:27:54.474Z,26.97
2018-09-05T04:30:25.556Z,29.07
2018-09-05T04:32:56.513Z,29.80
2018-09-05T04:35:27.518Z,29.25
2018-09-05T04:37:58.512Z,29.95
2018-09-05T04:40:29.515Z,28.52
2018-09-05T04:43:00.480Z,29.27
2018-09-05T04:45:31.531Z,30.68
2018-09-05T04:48:02.456Z,30.08
2018-09-05T04:50:33.525Z,29.30
2018-09-05T04:53:04.489Z,23.73
2018-09-05T04:55:35.449Z,27.77
2018-09-05T04:58:06.513Z,29.00
2018-09-05T05:00:37.477Z,30.27
2018-09-05T05:03:08.378Z,29.52
2018-09-05T05:05:39.565Z,28.10
2018-09-05T05:08:10.466Z,27.13
2018-09-05T05:10:41.678Z,29.60
2018-09-05T05:13:12.522Z,27.20
2018-09-05T05:15:43.509Z,26.02
2018-09-05T05:18:14.460Z,29.45
2018-09-05T05:20:45.450Z,26.65
2018-09-05T05:23:16.578Z,26.93
2018-09-05T05:25:47.569Z,28.25
2018-09-05T05:28:18.485Z,27.37
2018-09-05T05:30:49.495Z,25.85
2018-09-05T05:33:20.469Z,26.07
2018-09-05T05:35:51.461Z,26.75
2018-09-05T05:38:22.466Z,26.37
2018-09-05T05:40:53.485Z,22.13
2018-09-05T05:43:24.421Z,27.25
2018-09-05T05:45:55.513Z,28.35
2018-09-05T05:48:26.468Z,29.07
2018-09-05T05:50:57.487Z,27.10
2018-09-05T05:53:28.570Z,29.27
2018-09-05T05:55:59.497Z,24.50
2018-09-05T05:58:30.716Z,29.25
2018-09-05T06:01:01.691Z,27.13
2018-09-05T06:03:32.469Z,23.57
2018-09-05T06:06:03.504Z,29.42
2018-09-05T06:08:34.446Z,29.72
2018-09-05T06:11:05.754Z,29.23
2018-09-05T06:13:36.590Z,30.70
2018-09-05T06:16:07.529Z,29.70
2018-09-05T06:18:39.127Z,30.90
2018-09-05T06:21:10.463Z,30.82
2018-09-05T06:23:41.448Z,31.50
2018-09-05T06:26:12.480Z,31.95
2018-09-05T06:28:43.458Z,30.97
2018-09-05T06:31:14.614Z,31.50
2018-09-05T06:33:45.473Z,30.40
2018-09-05T06:36:16.489Z,23.77
2018-09-05T06:38:47.493Z,29.12
2018-09-05T06:41:18.548Z,30.30
2018-09-05T06:43:49.485Z,28.10
2018-09-05T06:46:20.464Z,29.52
2018-09-05T06:48:51.526Z,28.42
2018-09-05T06:51:22.529Z,22.60
2018-09-05T06:53:53.478Z,27.50
2018-09-05T06:56:24.502Z,21.85
2018-09-05T06:58:55.496Z,26.73
2018-09-05T07:01:26.460Z,26.50
2018-09-05T07:03:57.608Z,20.65
2018-09-05T07:06:28.481Z,24.05
2018-09-05T07:08:59.481Z,25.65
2018-09-05T07:11:30.483Z,19.48
2018-09-05T07:14:02.457Z,24.27
2018-09-05T07:16:33.458Z,18.40
2018-09-05T07:19:06.245Z,23.92
2018-09-05T07:21:37.681Z,22.48
2018-09-05T07:24:08.693Z,18.42
2018-09-05T07:26:39.586Z,22.15
2018-09-05T07:29:10.578Z,17.57
2018-09-05T07:31:41.553Z,17.80
2018-09-05T07:34:12.489Z,21.82
2018-09-05T07:36:43.482Z,16.65
2018-09-05T07:39:14.510Z,16.97
2018-09-05T07:41:45.450Z,21.93
2018-09-05T07:44:16.449Z,16.82
2018-09-05T07:46:47.468Z,21.82
2018-09-05T07:49:18.444Z,16.60
2018-09-05T07:51:49.570Z,20.88
2018-09-05T07:54:20.565Z,15.60
2018-09-05T07:56:51.501Z,17.05
2018-09-05T07:59:22.478Z,22.15
2018-09-05T08:01:53.497Z,16.73
2018-09-05T08:04:24.458Z,19.82
2018-09-05T08:06:55.476Z,16.15
2018-09-05T08:09:26.494Z,20.02
2018-09-05T08:11:57.489Z,15.80
2018-09-05T08:14:28.462Z,15.48
2018-09-05T08:16:59.449Z,18.60
2018-09-05T08:19:30.457Z,15.15
2018-09-05T08:22:01.406Z,18.20
2018-09-05T08:24:32.513Z,14.45
2018-09-05T08:27:03.515Z,15.28
2018-09-05T08:29:34.466Z,18.50
2018-09-05T08:32:05.472Z,14.15
2018-09-05T08:34:36.486Z,14.70
2018-09-05T08:37:07.665Z,14.15
2018-09-05T08:39:38.474Z,16.80
2018-09-05T08:42:09.517Z,13.22
2018-09-05T08:44:40.544Z,12.98
2018-09-05T08:47:11.526Z,13.10
2018-09-05T08:49:42.461Z,13.40
2018-09-05T08:52:13.518Z,13.05
2018-09-05T08:54:44.470Z,12.30
2018-09-05T08:57:15.491Z,12.88
2018-09-05T08:59:46.484Z,12.60
2018-09-05T09:02:17.522Z,13.43
2018-09-05T09:04:48.484Z,12.18
2018-09-05T09:07:19.629Z,12.05
2018-09-05T09:09:50.520Z,11.85
2018-09-05T09:12:21.543Z,11.90
2018-09-05T09:14:52.478Z,11.97
2018-09-05T09:17:23.464Z,11.05
2018-09-05T09:19:54.485Z,11.30
2018-09-05T09:22:25.490Z,11.53
2018-09-05T09:24:56.497Z,11.70
2018-09-05T09:27:27.489Z,11.73
2018-09-05T09:29:58.477Z,14.40
2018-09-05T09:32:29.505Z,11.60
2018-09-05T09:35:00.433Z,12.07
2018-09-05T09:37:31.465Z,11.75
2018-09-05T09:40:02.464Z,12.00
2018-09-05T09:42:33.497Z,13.83
2018-09-05T09:45:04.489Z,12.05
2018-09-05T09:47:35.465Z,14.13
2018-09-05T09:50:07.746Z,10.75
2018-09-05T09:52:39.017Z,11.70
2018-09-05T09:55:10.290Z,10.38
2018-09-05T09:57:41.387Z,11.05
2018-09-05T10:00:12.606Z,11.12
2018-09-05T10:02:48.544Z,10.80
2018-09-05T10:06:27.341Z,11.12
2018-09-05T10:09:03.444Z,11.03
2018-09-05T10:11:39.596Z,11.00
2018-09-05T10:14:16.451Z,14.43
2018-09-05T10:16:52.646Z,11.70
2018-09-05T10:19:23.545Z,11.53
2018-09-05T10:21:55.468Z,11.95
2018-09-05T10:24:26.485Z,14.25
2018-09-05T10:26:57.465Z,11.78
2018-09-05T10:29:28.463Z,11.30
2018-09-05T10:31:59.499Z,10.95
2018-09-05T10:34:30.495Z,14.28
2018-09-05T10:37:01.497Z,11.18
2018-09-05T10:39:32.570Z,10.78
2018-09-05T10:42:03.506Z,11.95
2018-09-05T10:44:34.497Z,11.20
2018-09-05T10:47:05.553Z,12.78
2018-09-05T10:49:36.502Z,10.25
2018-09-05T10:52:08.675Z,10.23
2018-09-05T10:54:39.497Z,11.97
2018-09-05T10:57:10.497Z,10.28
2018-09-05T11:02:24.498Z,8.90
2018-09-05T11:04:55.491Z,9.05
2018-09-05T11:07:26.537Z,8.60
2018-09-05T11:09:57.486Z,9.00
2018-09-05T11:12:28.513Z,9.35
2018-09-05T11:14:59.517Z,9.78
2018-09-05T11:17:30.505Z,8.80
2018-09-05T11:20:01.546Z,8.83
2018-09-05T11:22:32.521Z,9.40
2018-09-05T11:25:03.509Z,9.23
2018-09-05T11:27:34.610Z,9.00
2018-09-05T11:30:05.667Z,9.20
2018-09-05T11:32:36.602Z,9.13
2018-09-05T11:35:07.690Z,8.70
2018-09-05T11:37:38.561Z,8.70
2018-09-05T11:40:10.405Z,8.23
2018-09-05T11:42:41.507Z,8.20
2018-09-05T11:45:12.516Z,8.93
2018-09-05T11:47:43.602Z,8.10
2018-09-05T11:50:14.579Z,8.03
2018-09-05T11:52:45.625Z,8.05
2018-09-05T11:55:16.594Z,7.60
2018-09-05T11:57:47.649Z,7.92
2018-09-05T12:00:18.561Z,7.95
2018-09-05T12:02:49.521Z,7.58
2018-09-05T12:05:20.579Z,7.30
2018-09-05T12:07:51.567Z,7.17
2018-09-05T12:10:22.544Z,8.93
2018-09-05T12:12:54.018Z,7.15
2018-09-05T12:15:25.573Z,7.22
2018-09-05T12:17:56.496Z,7.20
2018-09-05T12:20:27.539Z,7.33
2018-09-05T12:22:58.536Z,6.40
2018-09-05T12:25:29.599Z,6.75
2018-09-05T12:28:00.721Z,6.58
2018-09-05T12:30:31.617Z,6.55
2018-09-05T12:33:02.560Z,7.28
2018-09-05T12:35:33.527Z,6.75
2018-09-05T12:38:04.591Z,7.00
2018-09-05T12:40:35.586Z,7.42
2018-09-05T12:43:06.700Z,7.25
2018-09-05T12:45:37.615Z,6.65
2018-09-05T12:48:09.551Z,8.40
2018-09-05T12:50:40.522Z,7.30
2018-09-05T12:53:11.578Z,7.25
2018-09-05T12:55:42.583Z,6.90
2018-09-05T12:58:13.630Z,7.05
2018-09-05T13:00:44.780Z,6.87
2018-09-05T13:03:15.925Z,7.00
2018-09-05T13:05:47.309Z,7.53
2018-09-05T13:08:18.406Z,7.40
2018-09-05T13:10:49.572Z,7.53
2018-09-05T13:13:20.602Z,7.33
2018-09-05T13:15:51.590Z,6.80
2018-09-05T13:18:22.494Z,6.62
2018-09-05T13:20:53.562Z,7.03
2018-09-05T13:23:24.759Z,6.92
2018-09-05T13:25:57.485Z,6.72
2018-09-05T13:28:31.565Z,8.28
2018-09-05T13:31:03.245Z,7.20
2018-09-05T13:36:06.925Z,6.47
2018-09-05T13:38:38.453Z,6.35
2018-09-05T13:41:09.694Z,7.25
2018-09-05T13:43:40.595Z,6.45
2018-09-05T13:46:12.514Z,6.40
2018-09-05T13:48:43.566Z,6.40
2018-09-05T13:51:14.592Z,6.55
2018-09-05T13:53:45.607Z,6.83
2018-09-05T13:56:16.600Z,6.28
2018-09-05T13:58:48.034Z,6.45
2018-09-05T14:01:19.450Z,6.08
2018-09-05T14:03:50.818Z,6.53
2018-09-05T14:06:21.704Z,6.37
2018-09-05T14:08:52.734Z,5.92
2018-09-05T14:11:23.718Z,6.42
2018-09-05T14:13:55.721Z,6.05
2018-09-05T14:16:26.718Z,6.20
2018-09-05T14:18:57.770Z,5.90
2018-09-05T14:21:29.184Z,6.30
2018-09-05T14:24:00.557Z,8.33
2018-09-05T14:26:31.658Z,6.08
2018-09-05T14:29:02.550Z,5.85
2018-09-05T14:31:35.046Z,5.80
2018-09-05T14:34:06.393Z,6.10
2018-09-05T14:36:37.589Z,6.37
2018-09-05T14:39:13.797Z,6.35
2018-09-05T14:41:44.591Z,6.40
2018-09-05T14:44:15.490Z,5.90
2018-09-05T14:46:46.470Z,6.42
2018-09-05T14:49:18.294Z,6.37
2018-09-05T14:51:51.466Z,6.62
2018-09-05T14:54:22.585Z,6.53
2018-09-05T14:56:53.485Z,6.22
2018-09-05T14:59:24.469Z,7.85
2018-09-05T15:01:55.505Z,6.40
2018-09-05T15:04:26.519Z,6.20
2018-09-05T15:06:57.580Z,6.10
2018-09-05T15:09:28.453Z,6.05
2018-09-05T15:11:59.574Z,5.60
2018-09-05T15:14:30.475Z,7.72
2018-09-05T15:17:02.374Z,7.22
2018-09-05T15:33:17.318Z,6.83
2018-09-05T15:35:52.735Z,7.72
2018-09-05T15:38:25.378Z,6.70
2018-09-05T15:41:01.376Z,8.38
2018-09-05T15:57:18.291Z,6.60
2018-09-05T15:59:57.477Z,8.00
2018-09-05T16:02:49.807Z,6.22
2018-09-05T16:05:20.561Z,8.13
2018-09-05T16:08:01.444Z,6.80
2018-09-05T16:10:52.308Z,8.30
2018-09-05T16:13:28.780Z,6.85
2018-09-05T16:16:19.068Z,8.78
2018-09-05T16:26:59.843Z,8.07
2018-09-05T16:29:31.432Z,7.15
2018-09-05T16:32:19.866Z,7.60
2018-09-05T16:35:00.227Z,6.42
2018-09-05T16:40:26.893Z,6.40
2018-09-05T16:43:01.621Z,7.67
2018-09-05T16:45:41.324Z,6.30
2018-09-05T16:48:20.863Z,7.55
2018-09-05T16:51:26.730Z,5.95
2018-09-05T16:53:57.554Z,7.05
2018-09-05T16:59:42.900Z,7.43
2018-09-05T17:02:45.009Z,6.03
2018-09-05T17:05:28.934Z,7.17
2018-09-05T17:08:07.438Z,6.00
2018-09-05T17:10:56.554Z,7.53
2018-09-05T17:13:34.416Z,6.30
2018-09-05T17:19:01.833Z,6.93
2018-09-05T17:21:53.838Z,12.35
2018-09-05T17:24:39.724Z,91.10
2018-09-05T17:27:18.583Z,19.67
2018-09-05T17:29:50.224Z,11.53
2018-09-05T17:32:22.290Z,10.40
2018-09-05T17:37:35.127Z,10.95
2018-09-05T17:40:13.209Z,7.95
2018-09-05T17:42:44.395Z,9.80
2018-09-05T17:45:28.773Z,6.83
2018-09-05T17:50:53.235Z,10.93
2018-09-05T17:53:28.936Z,8.33
2018-09-05T17:56:03.411Z,10.80
2018-09-05T17:58:34.640Z,7.72
2018-09-05T18:01:06.652Z,10.28
2018-09-05T18:03:37.589Z,10.98
2018-09-05T18:06:09.291Z,9.03
2018-09-05T18:08:41.444Z,7.78
2018-09-05T18:11:13.094Z,8.78
2018-09-05T18:13:45.506Z,6.65
2018-09-05T18:16:16.510Z,8.68
2018-09-05T18:18:47.658Z,7.70
2018-09-05T18:21:18.642Z,8.10
2018-09-05T18:23:49.549Z,5.83
2018-09-05T18:26:22.733Z,8.13
2018-09-05T18:28:54.183Z,6.72
2018-09-05T18:31:25.466Z,10.82
2018-09-05T18:33:56.485Z,6.95
2018-09-05T18:36:27.486Z,9.10
2018-09-05T18:38:58.453Z,7.28
2018-09-05T18:42:01.405Z,7.30
2018-09-05T18:44:32.593Z,8.90
2018-09-05T18:47:03.510Z,6.70
2018-09-05T18:49:34.437Z,8.68
2018-09-05T18:52:05.453Z,6.80
2018-09-05T18:54:36.432Z,8.10
2018-09-05T18:57:07.469Z,6.25
2018-09-05T18:59:38.424Z,8.83
2018-09-05T19:02:09.453Z,7.30
2018-09-05T19:04:40.460Z,8.60
2018-09-05T19:07:11.746Z,7.25
2018-09-05T19:09:42.685Z,9.33
2018-09-05T19:12:13.843Z,7.28
2018-09-05T19:14:44.711Z,9.60
2018-09-05T19:17:15.648Z,7.90
2018-09-05T19:19:48.186Z,9.23
2018-09-05T19:22:19.458Z,9.33
2018-09-05T19:24:50.552Z,8.18
2018-09-05T19:27:21.497Z,10.20
2018-09-05T19:29:52.539Z,8.48
2018-09-05T19:32:23.522Z,12.18
2018-09-05T19:35:03.624Z,29.02
2018-09-05T19:37:48.998Z,12.53
2018-09-05T19:40:20.288Z,8.35
2018-09-05T19:45:21.510Z,7.95
2018-09-05T19:47:53.464Z,7.87
2018-09-05T19:50:24.618Z,9.38
2018-09-05T19:52:55.770Z,7.80
2018-09-05T19:55:26.643Z,9.13
2018-09-05T19:57:57.674Z,6.92
2018-09-05T20:00:28.541Z,8.75
2018-09-05T20:03:05.163Z,7.03
2018-09-05T20:05:37.455Z,9.35
2018-09-05T20:08:08.658Z,6.87
2018-09-05T20:10:41.617Z,8.40
2018-09-05T20:13:13.094Z,7.42
2018-09-05T20:15:44.393Z,10.23
2018-09-05T20:18:15.626Z,7.25
2018-09-05T20:20:46.545Z,9.93
2018-09-05T20:23:17.514Z,7.47
2018-09-05T20:25:48.485Z,7.72
2018-09-05T20:28:25.007Z,9.78
2018-09-05T20:30:58.660Z,7.75
2018-09-05T20:36:54.462Z,11.30
2018-09-05T20:53:00.526Z,10.33
2018-09-05T20:55:31.564Z,11.40
2018-09-05T20:58:02.680Z,12.98
2018-09-05T21:00:33.549Z,9.43
2018-09-05T21:03:06.278Z,10.58
2018-09-05T21:08:07.698Z,10.85
2018-09-05T21:10:38.544Z,8.18
2018-09-05T21:13:09.473Z,11.00
2018-09-05T21:15:40.489Z,7.75
2018-09-05T21:18:11.646Z,9.65
2018-09-05T21:20:42.502Z,7.95
2018-09-05T21:23:13.441Z,9.90
2018-09-05T21:25:44.483Z,9.95
2018-09-05T21:28:15.597Z,8.03
2018-09-05T21:30:46.521Z,50.58
2018-09-05T21:33:17.813Z,15.48
2018-09-05T21:35:48.605Z,11.95
2018-09-05T21:38:19.568Z,9.68
2018-09-05T21:40:50.464Z,10.23
2018-09-05T21:43:21.434Z,8.70
2018-09-05T21:45:52.445Z,10.95
2018-09-05T21:48:23.516Z,9.58
2018-09-05T21:50:54.397Z,10.08
2018-09-05T21:53:25.449Z,7.67
2018-09-05T21:55:56.416Z,10.38
2018-09-05T21:58:27.469Z,8.20
2018-09-05T22:00:58.512Z,11.08
2018-09-05T22:03:29.421Z,9.38
2018-09-05T22:06:00.432Z,11.85
2018-09-05T22:08:31.468Z,10.15
2018-09-05T22:11:07.446Z,12.90
2018-09-05T22:13:38.665Z,9.33
2018-09-05T22:16:09.545Z,9.25
2018-09-05T22:18:40.508Z,11.95
2018-09-05T22:21:11.454Z,9.65
2018-09-05T22:23:42.445Z,9.20
2018-09-05T22:26:13.513Z,8.28
2018-09-05T22:28:44.472Z,8.38
2018-09-05T22:31:15.451Z,10.90
2018-09-05T22:33:46.466Z,8.80
2018-09-05T22:36:17.498Z,12.10
2018-09-05T22:38:48.519Z,8.18
2018-09-05T22:41:19.497Z,11.15
2018-09-05T22:44:13.449Z,8.50
2018-09-05T22:47:07.419Z,10.48
2018-09-05T22:52:15.439Z,7.92
2018-09-05T22:55:43.290Z,10.58
2018-09-05T22:58:44.441Z,8.20
2018-09-05T23:01:36.406Z,10.70
2018-09-05T23:06:55.220Z,8.30
2018-09-05T23:09:49.289Z,9.80
2018-09-05T23:12:43.255Z,8.15
2018-09-05T23:19:34.450Z,9.88
2018-09-05T23:22:05.492Z,8.48
2018-09-05T23:24:36.447Z,10.82
2018-09-05T23:27:07.469Z,9.00
2018-09-05T23:29:38.488Z,11.20
2018-09-05T23:32:09.459Z,9.45
2018-09-05T23:34:40.458Z,11.68
2018-09-05T23:37:11.445Z,9.10
2018-09-05T23:39:42.485Z,11.60
2018-09-05T23:42:13.490Z,11.73
2018-09-05T23:44:44.554Z,11.10
2018-09-05T23:47:15.538Z,8.30
2018-09-05T23:49:46.497Z,11.60
2018-09-05T23:52:17.463Z,11.43
2018-09-05T23:54:48.493Z,8.73
2018-09-05T23:57:19.504Z,10.70
2018-09-05T23:59:50.478Z,11.45
